Glenwood, NJ (07418)

7:32 AM EST on December 28, 2014 (GMT -0500)
Drew Mt | Change Station
CLOSE
Current Station
Personal Weather Station
Location: Sussex, NJ
Elevation: 948 ft
Nearby Weather Stations

Elev 948 ft 41.22 °N, 74.53 °W | Updated 7 minutes ago

Rain
Rain
40.3 °F
Feels Like 40 °F
N
2.7
Wind Variable Wind from SW

Today
High -- | Low -- °F
--% Chance of Precip.
Yesterday
High -- | Low -- °F
Precip. -- in
7:22 AM 4:36 PM
Waxing Crescent, 47% visible
Pressure 29.90 in
Visibility 6.0 miles
Clouds Overcast 6000 ft
Windchill 40 °F
Dew Point 38 °F
Humidity 90%
Rainfall 0.04 in
Snow Depth Not available.
UV 0 out of 12
Pollen .10 out of 12
Air Quality Not available.
Flu Activity Not available.
METAR KFWN 281153Z AUTO 00000KT 6SM RA BR OVC060 05/03 A2989 RMK AO2 SLP123 P0004 60004 70004 T00500028 10067 20028 58003

More Conditions Fewer Conditions

Pressure 29.90 in
Visibility 6.0 miles
Clouds Overcast 6000 ft
Windchill 40 °F
Dew Point 38 °F
Humidity 90%
Rainfall 0.04 in
Snow Depth Not available.
UV 0 out of 12
Pollen .10 out of 12
Air Quality Not available.
Flu Activity Not available.
METAR KFWN 281153Z AUTO 00000KT 6SM RA BR OVC060 05/03 A2989 RMK AO2 SLP123 P0004 60004 70004 T00500028 10067 20028 58003

More Conditions Fewer Conditions

10-Day Weather Forecast

Almanac

Astronomy

Dec. 28, 2014 Rise Set
Actual Time
Civil Twilight
Nautical Twilight
Astronomical Twilight
Moon
Length of Visible Light
Length of Day
Tomorrow will be .
, % of the Moon is Illuminated

Today's Extremes

State Highs State Lows

Community

WunderPhotos

Upload Photos

1,781,243 photos uploaded!

WunderBlogs® & News

Nearby

Air Quality

  Air Quality AQ Index Pollutant
Not available.

Snow Depth

Station Depth Elevation

Earthquake Activity

City Distance Mag. Time & Date
Minimum magnitude displayed is 2.5.

Coastal Water Temperatures

Place Temperature

Nearby Weather Stations